sensor_id;sensor_type;location;lat;lon;timestamp;P1;durP1;ratioP1;P2;durP2;ratioP2
3847;SDS011;1939;48.720;9.166;2024-01-30T00:00:11;6.73;;;5.07;;
3847;SDS011;1939;48.720;9.166;2024-01-30T00:02:36;8.63;;;5.23;;
3847;SDS011;1939;48.720;9.166;2024-01-30T00:05:01;11.67;;;5.87;;
3847;SDS011;1939;48.720;9.166;2024-01-30T00:07:28;8.70;;;6.10;;
3847;SDS011;1939;48.720;9.166;2024-01-30T00:09:53;9.07;;;5.90;;
3847;SDS011;1939;48.720;9.166;2024-01-30T00:12:19;13.23;;;6.47;;
3847;SDS011;1939;48.720;9.166;2024-01-30T00:14:45;12.10;;;5.20;;
3847;SDS011;1939;48.720;9.166;2024-01-30T00:17:10;6.80;;;5.50;;
3847;SDS011;1939;48.720;9.166;2024-01-30T00:19:35;7.87;;;5.43;;
3847;SDS011;1939;48.720;9.166;2024-01-30T00:22:00;11.27;;;6.33;;
3847;SDS011;1939;48.720;9.166;2024-01-30T00:24:25;9.03;;;5.00;;
3847;SDS011;1939;48.720;9.166;2024-01-30T00:26:51;7.63;;;4.60;;
3847;SDS011;1939;48.720;9.166;2024-01-30T00:29:17;13.70;;;5.83;;
3847;SDS011;1939;48.720;9.166;2024-01-30T00:31:44;8.63;;;5.73;;
3847;SDS011;1939;48.720;9.166;2024-01-30T00:34:10;6.33;;;4.87;;
3847;SDS011;1939;48.720;9.166;2024-01-30T00:36:35;8.30;;;5.53;;
3847;SDS011;1939;48.720;9.166;2024-01-30T00:39:00;6.83;;;4.73;;
3847;SDS011;1939;48.720;9.166;2024-01-30T00:41:25;7.13;;;4.97;;
3847;SDS011;1939;48.720;9.166;2024-01-30T00:43:51;9.20;;;5.17;;
3847;SDS011;1939;48.720;9.166;2024-01-30T00:46:17;7.30;;;5.23;;
3847;SDS011;1939;48.720;9.166;2024-01-30T00:48:42;7.30;;;5.10;;
3847;SDS011;1939;48.720;9.166;2024-01-30T00:51:07;9.50;;;5.43;;
3847;SDS011;1939;48.720;9.166;2024-01-30T00:53:33;11.17;;;5.57;;
3847;SDS011;1939;48.720;9.166;2024-01-30T00:55:58;7.60;;;5.37;;
3847;SDS011;1939;48.720;9.166;2024-01-30T00:58:23;10.53;;;5.20;;
3847;SDS011;1939;48.720;9.166;2024-01-30T01:00:48;9.97;;;6.23;;
3847;SDS011;1939;48.720;9.166;2024-01-30T01:03:13;12.33;;;5.93;;
3847;SDS011;1939;48.720;9.166;2024-01-30T01:05:39;10.90;;;5.80;;
3847;SDS011;1939;48.720;9.166;2024-01-30T01:08:04;8.67;;;5.47;;
3847;SDS011;1939;48.720;9.166;2024-01-30T01:10:29;10.13;;;5.93;;
3847;SDS011;1939;48.720;9.166;2024-01-30T01:12:54;10.13;;;5.70;;
3847;SDS011;1939;48.720;9.166;2024-01-30T01:15:20;9.70;;;5.40;;
3847;SDS011;1939;48.720;9.166;2024-01-30T01:17:45;9.70;;;5.30;;
3847;SDS011;1939;48.720;9.166;2024-01-30T01:20:11;8.93;;;5.33;;
3847;SDS011;1939;48.720;9.166;2024-01-30T01:22:37;16.90;;;5.50;;
3847;SDS011;1939;48.720;9.166;2024-01-30T01:25:03;7.37;;;5.20;;
3847;SDS011;1939;48.720;9.166;2024-01-30T01:27:31;10.93;;;5.70;;
3847;SDS011;1939;48.720;9.166;2024-01-30T01:29:58;7.13;;;4.80;;
3847;SDS011;1939;48.720;9.166;2024-01-30T01:32:23;7.00;;;4.57;;
3847;SDS011;1939;48.720;9.166;2024-01-30T01:34:48;9.30;;;4.50;;
3847;SDS011;1939;48.720;9.166;2024-01-30T01:37:13;9.63;;;4.97;;
3847;SDS011;1939;48.720;9.166;2024-01-30T01:39:38;8.67;;;5.30;;
3847;SDS011;1939;48.720;9.166;2024-01-30T01:42:04;7.60;;;4.80;;
3847;SDS011;1939;48.720;9.166;2024-01-30T01:44:29;6.60;;;4.93;;
3847;SDS011;1939;48.720;9.166;2024-01-30T01:46:54;8.10;;;4.77;;
3847;SDS011;1939;48.720;9.166;2024-01-30T01:49:20;13.43;;;5.63;;
3847;SDS011;1939;48.720;9.166;2024-01-30T01:51:46;10.73;;;6.30;;
3847;SDS011;1939;48.720;9.166;2024-01-30T01:54:12;8.00;;;5.37;;
3847;SDS011;1939;48.720;9.166;2024-01-30T01:56:38;8.53;;;4.47;;
3847;SDS011;1939;48.720;9.166;2024-01-30T01:59:07;7.20;;;4.73;;
3847;SDS011;1939;48.720;9.166;2024-01-30T02:01:33;9.53;;;5.90;;
3847;SDS011;1939;48.720;9.166;2024-01-30T02:04:01;6.03;;;4.27;;
3847;SDS011;1939;48.720;9.166;2024-01-30T02:06:27;8.07;;;5.40;;
3847;SDS011;1939;48.720;9.166;2024-01-30T02:08:53;9.77;;;5.83;;
3847;SDS011;1939;48.720;9.166;2024-01-30T02:11:18;9.20;;;4.67;;
3847;SDS011;1939;48.720;9.166;2024-01-30T02:13:44;11.13;;;5.27;;
3847;SDS011;1939;48.720;9.166;2024-01-30T02:16:10;9.07;;;5.50;;
3847;SDS011;1939;48.720;9.166;2024-01-30T02:18:35;14.00;;;6.53;;
3847;SDS011;1939;48.720;9.166;2024-01-30T02:21:04;10.73;;;6.40;;
3847;SDS011;1939;48.720;9.166;2024-01-30T02:23:29;9.23;;;6.60;;
3847;SDS011;1939;48.720;9.166;2024-01-30T02:25:55;13.87;;;6.37;;
3847;SDS011;1939;48.720;9.166;2024-01-30T02:28:20;14.23;;;6.40;;
3847;SDS011;1939;48.720;9.166;2024-01-30T02:30:45;9.83;;;6.40;;
3847;SDS011;1939;48.720;9.166;2024-01-30T02:33:11;11.80;;;6.60;;
3847;SDS011;1939;48.720;9.166;2024-01-30T02:35:36;13.00;;;7.73;;
3847;SDS011;1939;48.720;9.166;2024-01-30T02:38:01;11.60;;;7.00;;
3847;SDS011;1939;48.720;9.166;2024-01-30T02:40:27;11.63;;;6.30;;
3847;SDS011;1939;48.720;9.166;2024-01-30T02:42:52;8.13;;;6.43;;
3847;SDS011;1939;48.720;9.166;2024-01-30T02:45:18;7.23;;;5.20;;
3847;SDS011;1939;48.720;9.166;2024-01-30T02:47:43;8.87;;;5.20;;
3847;SDS011;1939;48.720;9.166;2024-01-30T02:50:08;12.53;;;5.97;;
3847;SDS011;1939;48.720;9.166;2024-01-30T02:52:34;9.80;;;5.40;;
3847;SDS011;1939;48.720;9.166;2024-01-30T02:54:59;11.73;;;6.90;;
3847;SDS011;1939;48.720;9.166;2024-01-30T02:57:24;13.20;;;7.27;;
3847;SDS011;1939;48.720;9.166;2024-01-30T02:59:50;10.63;;;6.20;;
3847;SDS011;1939;48.720;9.166;2024-01-30T03:02:15;12.00;;;6.73;;
3847;SDS011;1939;48.720;9.166;2024-01-30T03:04:40;12.40;;;6.30;;
3847;SDS011;1939;48.720;9.166;2024-01-30T03:07:06;17.73;;;9.23;;
3847;SDS011;1939;48.720;9.166;2024-01-30T03:09:31;12.50;;;8.03;;
3847;SDS011;1939;48.720;9.166;2024-01-30T03:11:56;14.20;;;7.27;;
3847;SDS011;1939;48.720;9.166;2024-01-30T03:14:22;14.93;;;7.00;;
3847;SDS011;1939;48.720;9.166;2024-01-30T03:16:47;18.60;;;7.27;;
3847;SDS011;1939;48.720;9.166;2024-01-30T03:19:12;10.43;;;7.07;;
3847;SDS011;1939;48.720;9.166;2024-01-30T03:21:37;12.10;;;5.97;;
3847;SDS011;1939;48.720;9.166;2024-01-30T03:24:03;12.87;;;7.77;;
3847;SDS011;1939;48.720;9.166;2024-01-30T03:26:28;13.17;;;5.53;;
3847;SDS011;1939;48.720;9.166;2024-01-30T03:28:53;12.13;;;5.80;;
3847;SDS011;1939;48.720;9.166;2024-01-30T03:31:18;8.37;;;6.30;;
3847;SDS011;1939;48.720;9.166;2024-01-30T03:33:43;10.30;;;6.07;;
3847;SDS011;1939;48.720;9.166;2024-01-30T03:36:09;11.40;;;6.67;;
3847;SDS011;1939;48.720;9.166;2024-01-30T03:38:34;12.00;;;7.30;;
3847;SDS011;1939;48.720;9.166;2024-01-30T03:40:59;10.33;;;6.57;;
3847;SDS011;1939;48.720;9.166;2024-01-30T03:43:25;9.53;;;6.90;;
3847;SDS011;1939;48.720;9.166;2024-01-30T03:45:50;14.63;;;8.57;;
3847;SDS011;1939;48.720;9.166;2024-01-30T03:48:15;16.97;;;7.80;;
3847;SDS011;1939;48.720;9.166;2024-01-30T03:50:41;14.17;;;7.70;;
3847;SDS011;1939;48.720;9.166;2024-01-30T03:53:06;13.63;;;7.20;;
3847;SDS011;1939;48.720;9.166;2024-01-30T03:55:31;16.37;;;7.87;;
3847;SDS011;1939;48.720;9.166;2024-01-30T03:57:56;12.37;;;7.03;;
3847;SDS011;1939;48.720;9.166;2024-01-30T04:00:22;14.13;;;7.10;;
3847;SDS011;1939;48.720;9.166;2024-01-30T04:02:47;18.20;;;8.63;;
3847;SDS011;1939;48.720;9.166;2024-01-30T04:05:12;9.43;;;5.93;;
3847;SDS011;1939;48.720;9.166;2024-01-30T04:07:37;14.40;;;7.93;;
3847;SDS011;1939;48.720;9.166;2024-01-30T04:10:02;14.20;;;9.57;;
3847;SDS011;1939;48.720;9.166;2024-01-30T04:12:31;20.17;;;9.20;;
3847;SDS011;1939;48.720;9.166;2024-01-30T04:14:56;17.43;;;8.43;;
3847;SDS011;1939;48.720;9.166;2024-01-30T04:17:21;13.17;;;8.20;;
3847;SDS011;1939;48.720;9.166;2024-01-30T04:19:46;13.70;;;7.50;;
3847;SDS011;1939;48.720;9.166;2024-01-30T04:22:11;16.47;;;8.67;;
3847;SDS011;1939;48.720;9.166;2024-01-30T04:24:37;13.90;;;7.67;;
3847;SDS011;1939;48.720;9.166;2024-01-30T04:27:02;11.73;;;6.83;;
3847;SDS011;1939;48.720;9.166;2024-01-30T04:29:27;14.57;;;8.17;;
3847;SDS011;1939;48.720;9.166;2024-01-30T04:31:52;9.97;;;7.10;;
3847;SDS011;1939;48.720;9.166;2024-01-30T04:34:18;14.93;;;9.33;;
3847;SDS011;1939;48.720;9.166;2024-01-30T04:36:44;14.47;;;8.13;;
3847;SDS011;1939;48.720;9.166;2024-01-30T04:39:10;11.03;;;7.93;;
3847;SDS011;1939;48.720;9.166;2024-01-30T04:41:35;17.40;;;9.77;;
3847;SDS011;1939;48.720;9.166;2024-01-30T04:44:00;18.43;;;7.90;;
3847;SDS011;1939;48.720;9.166;2024-01-30T04:46:26;13.07;;;7.70;;
3847;SDS011;1939;48.720;9.166;2024-01-30T04:48:51;12.43;;;8.23;;
3847;SDS011;1939;48.720;9.166;2024-01-30T04:51:16;12.60;;;7.67;;
3847;SDS011;1939;48.720;9.166;2024-01-30T04:53:41;10.10;;;7.27;;
3847;SDS011;1939;48.720;9.166;2024-01-30T04:56:06;12.93;;;7.73;;
3847;SDS011;1939;48.720;9.166;2024-01-30T04:58:32;11.47;;;7.00;;
3847;SDS011;1939;48.720;9.166;2024-01-30T05:00:57;14.50;;;7.87;;
3847;SDS011;1939;48.720;9.166;2024-01-30T05:03:22;15.70;;;8.23;;
3847;SDS011;1939;48.720;9.166;2024-01-30T05:05:48;9.93;;;7.13;;
3847;SDS011;1939;48.720;9.166;2024-01-30T05:08:14;14.50;;;8.27;;
3847;SDS011;1939;48.720;9.166;2024-01-30T05:10:39;15.87;;;7.87;;
3847;SDS011;1939;48.720;9.166;2024-01-30T05:13:04;13.63;;;8.40;;
3847;SDS011;1939;48.720;9.166;2024-01-30T05:15:29;16.70;;;8.47;;
3847;SDS011;1939;48.720;9.166;2024-01-30T05:17:55;15.57;;;8.67;;
3847;SDS011;1939;48.720;9.166;2024-01-30T05:20:20;13.60;;;7.77;;
3847;SDS011;1939;48.720;9.166;2024-01-30T05:22:45;15.43;;;7.97;;
3847;SDS011;1939;48.720;9.166;2024-01-30T05:25:12;12.57;;;7.47;;
3847;SDS011;1939;48.720;9.166;2024-01-30T05:27:37;13.10;;;8.00;;
3847;SDS011;1939;48.720;9.166;2024-01-30T05:30:03;22.43;;;8.40;;
3847;SDS011;1939;48.720;9.166;2024-01-30T05:32:28;12.97;;;8.03;;
3847;SDS011;1939;48.720;9.166;2024-01-30T05:34:53;16.77;;;8.87;;
3847;SDS011;1939;48.720;9.166;2024-01-30T05:37:18;17.77;;;8.43;;
3847;SDS011;1939;48.720;9.166;2024-01-30T05:39:44;16.23;;;10.63;;
3847;SDS011;1939;48.720;9.166;2024-01-30T05:42:09;14.97;;;8.50;;
3847;SDS011;1939;48.720;9.166;2024-01-30T05:44:35;14.00;;;8.07;;
3847;SDS011;1939;48.720;9.166;2024-01-30T05:47:00;13.20;;;9.27;;
3847;SDS011;1939;48.720;9.166;2024-01-30T05:49:25;15.50;;;8.30;;
3847;SDS011;1939;48.720;9.166;2024-01-30T05:51:50;13.40;;;8.20;;
3847;SDS011;1939;48.720;9.166;2024-01-30T05:54:15;16.53;;;8.80;;
3847;SDS011;1939;48.720;9.166;2024-01-30T05:56:41;15.67;;;9.40;;
3847;SDS011;1939;48.720;9.166;2024-01-30T05:59:06;14.07;;;8.57;;
3847;SDS011;1939;48.720;9.166;2024-01-30T06:01:31;12.10;;;7.90;;
3847;SDS011;1939;48.720;9.166;2024-01-30T06:03:57;14.90;;;8.67;;
3847;SDS011;1939;48.720;9.166;2024-01-30T06:06:22;14.87;;;8.60;;
3847;SDS011;1939;48.720;9.166;2024-01-30T06:08:47;15.47;;;8.57;;
3847;SDS011;1939;48.720;9.166;2024-01-30T06:11:12;13.93;;;9.10;;
3847;SDS011;1939;48.720;9.166;2024-01-30T06:13:38;14.03;;;8.10;;
3847;SDS011;1939;48.720;9.166;2024-01-30T06:16:03;12.33;;;8.40;;
3847;SDS011;1939;48.720;9.166;2024-01-30T06:18:28;15.60;;;9.20;;
3847;SDS011;1939;48.720;9.166;2024-01-30T06:20:55;13.93;;;8.97;;
3847;SDS011;1939;48.720;9.166;2024-01-30T06:23:20;19.10;;;11.70;;
3847;SDS011;1939;48.720;9.166;2024-01-30T06:25:46;14.97;;;8.80;;
3847;SDS011;1939;48.720;9.166;2024-01-30T06:28:11;15.13;;;8.40;;
3847;SDS011;1939;48.720;9.166;2024-01-30T06:30:36;16.43;;;7.90;;
3847;SDS011;1939;48.720;9.166;2024-01-30T06:33:01;12.13;;;8.30;;
3847;SDS011;1939;48.720;9.166;2024-01-30T06:35:27;20.43;;;9.57;;
3847;SDS011;1939;48.720;9.166;2024-01-30T06:37:53;13.40;;;8.40;;
3847;SDS011;1939;48.720;9.166;2024-01-30T06:40:19;19.77;;;8.40;;
3847;SDS011;1939;48.720;9.166;2024-01-30T06:42:44;16.80;;;9.17;;
3847;SDS011;1939;48.720;9.166;2024-01-30T06:45:09;14.57;;;9.93;;
3847;SDS011;1939;48.720;9.166;2024-01-30T06:47:34;16.83;;;8.10;;
3847;SDS011;1939;48.720;9.166;2024-01-30T06:50:00;15.63;;;8.50;;
3847;SDS011;1939;48.720;9.166;2024-01-30T06:52:27;17.53;;;8.50;;
3847;SDS011;1939;48.720;9.166;2024-01-30T06:54:52;12.57;;;8.90;;
3847;SDS011;1939;48.720;9.166;2024-01-30T06:57:17;13.70;;;7.93;;
3847;SDS011;1939;48.720;9.166;2024-01-30T06:59:42;19.13;;;9.07;;
3847;SDS011;1939;48.720;9.166;2024-01-30T07:02:12;19.80;;;9.70;;
3847;SDS011;1939;48.720;9.166;2024-01-30T07:04:37;18.83;;;8.33;;
3847;SDS011;1939;48.720;9.166;2024-01-30T07:07:02;18.20;;;8.80;;
3847;SDS011;1939;48.720;9.166;2024-01-30T07:09:29;13.40;;;8.50;;
3847;SDS011;1939;48.720;9.166;2024-01-30T07:11:55;20.57;;;9.50;;
3847;SDS011;1939;48.720;9.166;2024-01-30T07:14:20;16.90;;;9.43;;
3847;SDS011;1939;48.720;9.166;2024-01-30T07:16:45;18.03;;;9.40;;
3847;SDS011;1939;48.720;9.166;2024-01-30T07:19:11;15.07;;;8.13;;
3847;SDS011;1939;48.720;9.166;2024-01-30T07:21:36;29.20;;;9.20;;
3847;SDS011;1939;48.720;9.166;2024-01-30T07:24:01;18.30;;;9.90;;
3847;SDS011;1939;48.720;9.166;2024-01-30T07:26:27;13.47;;;8.47;;
3847;SDS011;1939;48.720;9.166;2024-01-30T07:28:52;18.40;;;9.03;;
3847;SDS011;1939;48.720;9.166;2024-01-30T07:31:17;14.20;;;9.03;;
3847;SDS011;1939;48.720;9.166;2024-01-30T07:33:45;18.40;;;9.93;;
3847;SDS011;1939;48.720;9.166;2024-01-30T07:36:10;16.03;;;9.13;;
3847;SDS011;1939;48.720;9.166;2024-01-30T07:38:36;16.83;;;9.33;;
3847;SDS011;1939;48.720;9.166;2024-01-30T07:41:01;11.33;;;8.87;;
3847;SDS011;1939;48.720;9.166;2024-01-30T07:43:26;12.83;;;8.70;;
3847;SDS011;1939;48.720;9.166;2024-01-30T07:45:51;13.40;;;8.60;;
3847;SDS011;1939;48.720;9.166;2024-01-30T07:48:17;14.43;;;8.93;;
3847;SDS011;1939;48.720;9.166;2024-01-30T07:50:42;13.00;;;8.07;;
3847;SDS011;1939;48.720;9.166;2024-01-30T07:53:07;12.00;;;8.50;;
3847;SDS011;1939;48.720;9.166;2024-01-30T07:55:32;12.83;;;7.93;;
3847;SDS011;1939;48.720;9.166;2024-01-30T07:57:58;11.70;;;7.33;;
3847;SDS011;1939;48.720;9.166;2024-01-30T08:00:26;14.20;;;8.80;;
3847;SDS011;1939;48.720;9.166;2024-01-30T08:02:51;18.50;;;9.33;;
3847;SDS011;1939;48.720;9.166;2024-01-30T08:05:19;13.57;;;8.40;;
3847;SDS011;1939;48.720;9.166;2024-01-30T08:07:44;14.43;;;8.63;;
3847;SDS011;1939;48.720;9.166;2024-01-30T08:10:11;15.83;;;9.13;;
3847;SDS011;1939;48.720;9.166;2024-01-30T08:12:36;11.10;;;8.23;;
3847;SDS011;1939;48.720;9.166;2024-01-30T08:15:02;15.83;;;9.40;;
3847;SDS011;1939;48.720;9.166;2024-01-30T08:17:28;10.73;;;8.07;;
3847;SDS011;1939;48.720;9.166;2024-01-30T08:19:53;17.63;;;8.53;;
3847;SDS011;1939;48.720;9.166;2024-01-30T08:22:18;13.30;;;8.50;;
3847;SDS011;1939;48.720;9.166;2024-01-30T08:24:43;13.00;;;8.40;;
3847;SDS011;1939;48.720;9.166;2024-01-30T08:27:09;9.77;;;7.33;;
3847;SDS011;1939;48.720;9.166;2024-01-30T08:29:35;15.30;;;8.53;;
3847;SDS011;1939;48.720;9.166;2024-01-30T08:32:00;16.13;;;10.20;;
3847;SDS011;1939;48.720;9.166;2024-01-30T08:34:25;12.73;;;9.53;;
3847;SDS011;1939;48.720;9.166;2024-01-30T08:36:50;11.57;;;8.73;;
3847;SDS011;1939;48.720;9.166;2024-01-30T08:39:16;12.10;;;8.83;;
3847;SDS011;1939;48.720;9.166;2024-01-30T08:41:41;13.23;;;9.20;;
3847;SDS011;1939;48.720;9.166;2024-01-30T08:44:06;11.83;;;8.53;;
3847;SDS011;1939;48.720;9.166;2024-01-30T08:46:32;11.70;;;9.40;;
3847;SDS011;1939;48.720;9.166;2024-01-30T08:48:57;19.60;;;8.60;;
3847;SDS011;1939;48.720;9.166;2024-01-30T08:51:22;11.73;;;9.20;;
3847;SDS011;1939;48.720;9.166;2024-01-30T08:53:48;14.10;;;8.77;;
3847;SDS011;1939;48.720;9.166;2024-01-30T08:56:13;11.30;;;9.80;;
3847;SDS011;1939;48.720;9.166;2024-01-30T08:58:38;13.60;;;9.10;;
3847;SDS011;1939;48.720;9.166;2024-01-30T09:01:04;11.93;;;8.53;;
3847;SDS011;1939;48.720;9.166;2024-01-30T09:03:30;12.13;;;9.00;;
3847;SDS011;1939;48.720;9.166;2024-01-30T09:05:55;16.47;;;9.50;;
3847;SDS011;1939;48.720;9.166;2024-01-30T09:08:21;14.47;;;9.73;;
3847;SDS011;1939;48.720;9.166;2024-01-30T09:10:46;13.50;;;10.03;;
3847;SDS011;1939;48.720;9.166;2024-01-30T09:13:11;14.07;;;9.40;;
3847;SDS011;1939;48.720;9.166;2024-01-30T09:15:36;21.30;;;10.23;;
3847;SDS011;1939;48.720;9.166;2024-01-30T09:18:02;14.07;;;9.30;;
3847;SDS011;1939;48.720;9.166;2024-01-30T09:20:27;11.47;;;8.30;;
3847;SDS011;1939;48.720;9.166;2024-01-30T09:22:52;13.60;;;8.60;;
3847;SDS011;1939;48.720;9.166;2024-01-30T09:25:17;12.47;;;8.43;;
3847;SDS011;1939;48.720;9.166;2024-01-30T09:27:43;13.67;;;9.47;;
3847;SDS011;1939;48.720;9.166;2024-01-30T09:30:09;13.97;;;8.90;;
3847;SDS011;1939;48.720;9.166;2024-01-30T09:32:34;14.00;;;10.67;;
3847;SDS011;1939;48.720;9.166;2024-01-30T09:34:59;14.40;;;9.10;;
3847;SDS011;1939;48.720;9.166;2024-01-30T09:37:24;14.93;;;9.10;;
3847;SDS011;1939;48.720;9.166;2024-01-30T09:39:50;13.77;;;9.77;;
3847;SDS011;1939;48.720;9.166;2024-01-30T09:42:21;15.27;;;9.20;;
3847;SDS011;1939;48.720;9.166;2024-01-30T09:44:50;14.13;;;9.20;;
3847;SDS011;1939;48.720;9.166;2024-01-30T09:47:17;15.60;;;10.13;;
3847;SDS011;1939;48.720;9.166;2024-01-30T09:49:42;18.87;;;9.33;;
3847;SDS011;1939;48.720;9.166;2024-01-30T09:52:08;16.83;;;10.07;;
3847;SDS011;1939;48.720;9.166;2024-01-30T09:54:33;13.13;;;9.90;;
3847;SDS011;1939;48.720;9.166;2024-01-30T09:56:59;18.17;;;9.60;;
3847;SDS011;1939;48.720;9.166;2024-01-30T09:59:24;13.60;;;9.23;;
3847;SDS011;1939;48.720;9.166;2024-01-30T10:01:50;17.30;;;9.40;;
3847;SDS011;1939;48.720;9.166;2024-01-30T10:04:15;14.20;;;9.90;;
3847;SDS011;1939;48.720;9.166;2024-01-30T10:06:40;11.60;;;9.27;;
3847;SDS011;1939;48.720;9.166;2024-01-30T10:09:06;18.40;;;10.50;;
3847;SDS011;1939;48.720;9.166;2024-01-30T10:11:32;12.70;;;9.17;;
3847;SDS011;1939;48.720;9.166;2024-01-30T10:13:57;12.33;;;8.03;;
3847;SDS011;1939;48.720;9.166;2024-01-30T10:16:22;15.37;;;9.70;;
3847;SDS011;1939;48.720;9.166;2024-01-30T10:18:48;11.87;;;7.13;;
3847;SDS011;1939;48.720;9.166;2024-01-30T10:21:13;15.20;;;7.87;;
3847;SDS011;1939;48.720;9.166;2024-01-30T10:23:38;15.50;;;8.33;;
3847;SDS011;1939;48.720;9.166;2024-01-30T10:26:03;13.30;;;7.30;;
3847;SDS011;1939;48.720;9.166;2024-01-30T10:28:29;15.43;;;7.80;;
3847;SDS011;1939;48.720;9.166;2024-01-30T10:31:01;19.13;;;9.07;;
3847;SDS011;1939;48.720;9.166;2024-01-30T10:33:28;13.83;;;6.70;;
3847;SDS011;1939;48.720;9.166;2024-01-30T10:35:59;8.93;;;5.77;;
3847;SDS011;1939;48.720;9.166;2024-01-30T10:38:25;7.83;;;5.80;;
3847;SDS011;1939;48.720;9.166;2024-01-30T10:40:53;12.70;;;6.63;;
3847;SDS011;1939;48.720;9.166;2024-01-30T10:43:21;13.33;;;6.50;;
3847;SDS011;1939;48.720;9.166;2024-01-30T10:45:47;9.60;;;5.73;;
3847;SDS011;1939;48.720;9.166;2024-01-30T10:48:14;11.40;;;7.40;;
3847;SDS011;1939;48.720;9.166;2024-01-30T10:50:41;18.03;;;8.70;;
3847;SDS011;1939;48.720;9.166;2024-01-30T10:53:07;13.90;;;8.83;;
3847;SDS011;1939;48.720;9.166;2024-01-30T10:55:33;12.67;;;8.80;;
3847;SDS011;1939;48.720;9.166;2024-01-30T10:57:58;11.30;;;7.30;;
3847;SDS011;1939;48.720;9.166;2024-01-30T11:00:24;12.50;;;7.47;;
3847;SDS011;1939;48.720;9.166;2024-01-30T11:02:51;10.63;;;8.00;;
3847;SDS011;1939;48.720;9.166;2024-01-30T11:05:23;18.73;;;7.17;;
3847;SDS011;1939;48.720;9.166;2024-01-30T11:07:48;16.00;;;7.67;;
3847;SDS011;1939;48.720;9.166;2024-01-30T11:10:14;12.40;;;7.43;;
3847;SDS011;1939;48.720;9.166;2024-01-30T11:12:40;12.20;;;8.57;;
3847;SDS011;1939;48.720;9.166;2024-01-30T11:20:15;9.93;;;7.40;;
3847;SDS011;1939;48.720;9.166;2024-01-30T11:22:47;12.43;;;7.10;;
3847;SDS011;1939;48.720;9.166;2024-01-30T11:25:12;6.70;;;5.13;;
3847;SDS011;1939;48.720;9.166;2024-01-30T11:27:38;10.77;;;7.67;;
3847;SDS011;1939;48.720;9.166;2024-01-30T11:30:04;18.00;;;9.63;;
3847;SDS011;1939;48.720;9.166;2024-01-30T11:32:29;14.63;;;7.50;;
3847;SDS011;1939;48.720;9.166;2024-01-30T11:34:55;11.60;;;7.70;;
3847;SDS011;1939;48.720;9.166;2024-01-30T11:37:20;11.80;;;6.77;;
3847;SDS011;1939;48.720;9.166;2024-01-30T11:39:46;12.17;;;6.50;;
3847;SDS011;1939;48.720;9.166;2024-01-30T11:42:13;14.87;;;7.90;;
3847;SDS011;1939;48.720;9.166;2024-01-30T11:44:38;13.60;;;9.60;;
3847;SDS011;1939;48.720;9.166;2024-01-30T11:47:03;13.60;;;9.13;;
3847;SDS011;1939;48.720;9.166;2024-01-30T11:49:29;12.37;;;9.37;;
3847;SDS011;1939;48.720;9.166;2024-01-30T11:51:54;15.87;;;8.60;;
3847;SDS011;1939;48.720;9.166;2024-01-30T11:54:19;12.40;;;6.77;;
3847;SDS011;1939;48.720;9.166;2024-01-30T11:56:44;13.27;;;8.13;;
3847;SDS011;1939;48.720;9.166;2024-01-30T11:59:10;12.57;;;7.90;;
3847;SDS011;1939;48.720;9.166;2024-01-30T12:01:35;10.03;;;7.33;;
3847;SDS011;1939;48.720;9.166;2024-01-30T12:04:01;11.17;;;7.90;;
3847;SDS011;1939;48.720;9.166;2024-01-30T12:06:26;10.73;;;7.53;;
3847;SDS011;1939;48.720;9.166;2024-01-30T12:09:01;12.53;;;7.03;;
3847;SDS011;1939;48.720;9.166;2024-01-30T12:11:29;9.03;;;6.13;;
3847;SDS011;1939;48.720;9.166;2024-01-30T12:13:55;11.40;;;6.00;;
3847;SDS011;1939;48.720;9.166;2024-01-30T12:16:20;10.80;;;6.10;;
3847;SDS011;1939;48.720;9.166;2024-01-30T12:18:46;10.63;;;6.23;;
3847;SDS011;1939;48.720;9.166;2024-01-30T12:21:11;10.83;;;6.60;;
3847;SDS011;1939;48.720;9.166;2024-01-30T12:23:36;7.57;;;5.30;;
3847;SDS011;1939;48.720;9.166;2024-01-30T12:26:02;8.37;;;5.40;;
3847;SDS011;1939;48.720;9.166;2024-01-30T12:28:28;12.37;;;6.97;;
3847;SDS011;1939;48.720;9.166;2024-01-30T12:30:55;9.00;;;5.63;;
3847;SDS011;1939;48.720;9.166;2024-01-30T12:33:20;23.83;;;6.37;;
3847;SDS011;1939;48.720;9.166;2024-01-30T12:35:46;12.03;;;7.00;;
3847;SDS011;1939;48.720;9.166;2024-01-30T12:38:13;19.93;;;6.63;;
3847;SDS011;1939;48.720;9.166;2024-01-30T12:40:38;12.73;;;6.60;;
3847;SDS011;1939;48.720;9.166;2024-01-30T12:43:04;12.33;;;7.63;;
3847;SDS011;1939;48.720;9.166;2024-01-30T12:45:29;9.67;;;6.47;;
3847;SDS011;1939;48.720;9.166;2024-01-30T12:47:55;11.30;;;6.20;;
3847;SDS011;1939;48.720;9.166;2024-01-30T12:50:20;9.30;;;5.60;;
3847;SDS011;1939;48.720;9.166;2024-01-30T12:52:45;8.50;;;5.30;;
3847;SDS011;1939;48.720;9.166;2024-01-30T12:55:10;9.60;;;5.47;;
3847;SDS011;1939;48.720;9.166;2024-01-30T12:57:36;8.50;;;5.20;;
3847;SDS011;1939;48.720;9.166;2024-01-30T13:00:01;7.90;;;4.73;;
3847;SDS011;1939;48.720;9.166;2024-01-30T13:02:27;8.50;;;5.57;;
3847;SDS011;1939;48.720;9.166;2024-01-30T13:04:59;6.83;;;4.70;;
3847;SDS011;1939;48.720;9.166;2024-01-30T13:07:25;11.37;;;4.10;;
3847;SDS011;1939;48.720;9.166;2024-01-30T13:09:50;4.73;;;3.37;;
3847;SDS011;1939;48.720;9.166;2024-01-30T13:12:15;8.13;;;3.13;;
3847;SDS011;1939;48.720;9.166;2024-01-30T13:14:40;6.93;;;4.00;;
3847;SDS011;1939;48.720;9.166;2024-01-30T13:17:06;3.30;;;2.53;;
3847;SDS011;1939;48.720;9.166;2024-01-30T13:19:31;5.33;;;2.93;;
3847;SDS011;1939;48.720;9.166;2024-01-30T13:21:56;4.50;;;2.33;;
3847;SDS011;1939;48.720;9.166;2024-01-30T13:24:21;2.90;;;2.37;;
3847;SDS011;1939;48.720;9.166;2024-01-30T13:26:47;3.10;;;2.43;;
3847;SDS011;1939;48.720;9.166;2024-01-30T13:29:12;3.90;;;2.87;;
3847;SDS011;1939;48.720;9.166;2024-01-30T13:31:37;3.07;;;2.67;;
3847;SDS011;1939;48.720;9.166;2024-01-30T13:34:04;3.87;;;2.13;;
3847;SDS011;1939;48.720;9.166;2024-01-30T13:36:30;4.97;;;2.43;;
3847;SDS011;1939;48.720;9.166;2024-01-30T13:38:55;6.07;;;3.17;;
3847;SDS011;1939;48.720;9.166;2024-01-30T13:41:21;4.87;;;2.70;;
3847;SDS011;1939;48.720;9.166;2024-01-30T13:43:47;3.20;;;2.63;;
3847;SDS011;1939;48.720;9.166;2024-01-30T13:46:13;3.67;;;2.50;;
3847;SDS011;1939;48.720;9.166;2024-01-30T13:48:38;10.50;;;3.00;;
3847;SDS011;1939;48.720;9.166;2024-01-30T13:51:03;3.80;;;2.93;;
3847;SDS011;1939;48.720;9.166;2024-01-30T13:53:29;4.73;;;2.90;;
3847;SDS011;1939;48.720;9.166;2024-01-30T13:55:54;5.20;;;2.70;;
3847;SDS011;1939;48.720;9.166;2024-01-30T13:58:20;5.93;;;2.40;;
3847;SDS011;1939;48.720;9.166;2024-01-30T14:00:45;4.10;;;2.80;;
3847;SDS011;1939;48.720;9.166;2024-01-30T14:03:10;5.07;;;2.93;;
3847;SDS011;1939;48.720;9.166;2024-01-30T14:05:35;5.47;;;2.97;;
3847;SDS011;1939;48.720;9.166;2024-01-30T14:08:01;3.17;;;2.30;;
3847;SDS011;1939;48.720;9.166;2024-01-30T14:10:26;6.10;;;2.43;;
3847;SDS011;1939;48.720;9.166;2024-01-30T14:12:51;4.77;;;2.43;;
3847;SDS011;1939;48.720;9.166;2024-01-30T14:15:17;5.83;;;2.60;;
3847;SDS011;1939;48.720;9.166;2024-01-30T14:17:43;3.50;;;2.40;;
3847;SDS011;1939;48.720;9.166;2024-01-30T14:20:09;8.30;;;2.80;;
3847;SDS011;1939;48.720;9.166;2024-01-30T14:22:35;4.10;;;2.80;;
3847;SDS011;1939;48.720;9.166;2024-01-30T14:25:01;6.57;;;2.83;;
3847;SDS011;1939;48.720;9.166;2024-01-30T14:27:28;7.60;;;2.80;;
3847;SDS011;1939;48.720;9.166;2024-01-30T14:29:54;6.67;;;2.70;;
3847;SDS011;1939;48.720;9.166;2024-01-30T14:32:19;3.17;;;2.67;;
3847;SDS011;1939;48.720;9.166;2024-01-30T14:34:44;5.10;;;2.70;;
3847;SDS011;1939;48.720;9.166;2024-01-30T14:37:10;3.63;;;2.80;;
3847;SDS011;1939;48.720;9.166;2024-01-30T14:39:35;4.97;;;3.30;;
3847;SDS011;1939;48.720;9.166;2024-01-30T14:42:02;6.77;;;2.77;;
3847;SDS011;1939;48.720;9.166;2024-01-30T14:44:27;6.63;;;3.30;;
3847;SDS011;1939;48.720;9.166;2024-01-30T14:46:53;6.73;;;4.20;;
3847;SDS011;1939;48.720;9.166;2024-01-30T14:49:18;3.80;;;2.90;;
3847;SDS011;1939;48.720;9.166;2024-01-30T14:51:43;6.20;;;3.23;;
3847;SDS011;1939;48.720;9.166;2024-01-30T14:54:08;4.20;;;3.27;;
3847;SDS011;1939;48.720;9.166;2024-01-30T14:56:33;5.03;;;3.13;;
3847;SDS011;1939;48.720;9.166;2024-01-30T14:58:59;3.20;;;2.77;;